sensor_id;sensor_type;location;lat;lon;timestamp;temperature;humidity
11035;DHT22;5571;48.110;-1.706;2022-11-14T00:00:07;12.20;99.90
11035;DHT22;5571;48.110;-1.706;2022-11-14T00:02:35;12.10;99.90
11035;DHT22;5571;48.110;-1.706;2022-11-14T00:05:00;12.10;99.90
11035;DHT22;5571;48.110;-1.706;2022-11-14T00:07:29;12.10;99.90
11035;DHT22;5571;48.110;-1.706;2022-11-14T00:09:55;12.10;99.90
11035;DHT22;5571;48.110;-1.706;2022-11-14T00:12:20;12.10;99.90
11035;DHT22;5571;48.110;-1.706;2022-11-14T00:14:46;12.00;99.90
11035;DHT22;5571;48.110;-1.706;2022-11-14T00:17:12;12.10;99.90
11035;DHT22;5571;48.110;-1.706;2022-11-14T00:19:37;12.00;99.90
11035;DHT22;5571;48.110;-1.706;2022-11-14T00:22:03;12.00;99.90
11035;DHT22;5571;48.110;-1.706;2022-11-14T00:24:28;12.00;99.90
11035;DHT22;5571;48.110;-1.706;2022-11-14T00:26:54;11.90;99.90
11035;DHT22;5571;48.110;-1.706;2022-11-14T00:29:20;11.90;99.90
11035;DHT22;5571;48.110;-1.706;2022-11-14T00:31:45;11.90;99.90
11035;DHT22;5571;48.110;-1.706;2022-11-14T00:34:11;11.80;99.90
11035;DHT22;5571;48.110;-1.706;2022-11-14T00:36:37;11.80;99.90
11035;DHT22;5571;48.110;-1.706;2022-11-14T00:39:03;11.90;99.90
11035;DHT22;5571;48.110;-1.706;2022-11-14T00:41:28;11.90;99.90
11035;DHT22;5571;48.110;-1.706;2022-11-14T00:43:54;11.90;99.90
11035;DHT22;5571;48.110;-1.706;2022-11-14T00:46:20;11.90;99.90
11035;DHT22;5571;48.110;-1.706;2022-11-14T00:48:45;11.90;99.90
11035;DHT22;5571;48.110;-1.706;2022-11-14T00:51:11;11.90;99.90
11035;DHT22;5571;48.110;-1.706;2022-11-14T00:53:37;11.80;99.90
11035;DHT22;5571;48.110;-1.706;2022-11-14T00:56:02;11.80;99.90
11035;DHT22;5571;48.110;-1.706;2022-11-14T00:58:28;11.80;99.90
11035;DHT22;5571;48.110;-1.706;2022-11-14T01:00:54;11.80;99.90
11035;DHT22;5571;48.110;-1.706;2022-11-14T01:03:20;11.80;99.90
11035;DHT22;5571;48.110;-1.706;2022-11-14T01:05:48;11.80;99.90
11035;DHT22;5571;48.110;-1.706;2022-11-14T01:08:15;11.80;99.90
11035;DHT22;5571;48.110;-1.706;2022-11-14T01:10:44;11.80;99.90
11035;DHT22;5571;48.110;-1.706;2022-11-14T01:13:10;11.80;99.90
11035;DHT22;5571;48.110;-1.706;2022-11-14T01:15:44;11.80;99.90
11035;DHT22;5571;48.110;-1.706;2022-11-14T01:18:11;11.80;99.90
11035;DHT22;5571;48.110;-1.706;2022-11-14T01:20:42;11.80;99.90
11035;DHT22;5571;48.110;-1.706;2022-11-14T01:23:09;11.80;99.90
11035;DHT22;5571;48.110;-1.706;2022-11-14T01:25:36;11.80;99.90
11035;DHT22;5571;48.110;-1.706;2022-11-14T01:28:06;11.80;99.90
11035;DHT22;5571;48.110;-1.706;2022-11-14T01:30:32;11.70;99.90
11035;DHT22;5571;48.110;-1.706;2022-11-14T01:32:58;11.70;99.90
11035;DHT22;5571;48.110;-1.706;2022-11-14T01:35:23;11.70;99.90
11035;DHT22;5571;48.110;-1.706;2022-11-14T01:37:49;11.70;99.90
11035;DHT22;5571;48.110;-1.706;2022-11-14T01:40:15;11.70;99.90
11035;DHT22;5571;48.110;-1.706;2022-11-14T01:42:41;11.60;99.90
11035;DHT22;5571;48.110;-1.706;2022-11-14T01:48:20;11.60;99.90
11035;DHT22;5571;48.110;-1.706;2022-11-14T01:50:54;11.60;99.90
11035;DHT22;5571;48.110;-1.706;2022-11-14T01:53:21;11.50;99.90
11035;DHT22;5571;48.110;-1.706;2022-11-14T01:55:47;11.50;99.90
11035;DHT22;5571;48.110;-1.706;2022-11-14T01:58:14;11.40;99.90
11035;DHT22;5571;48.110;-1.706;2022-11-14T02:00:40;11.40;99.90
11035;DHT22;5571;48.110;-1.706;2022-11-14T02:03:06;11.40;99.90
11035;DHT22;5571;48.110;-1.706;2022-11-14T02:05:32;11.30;99.90
11035;DHT22;5571;48.110;-1.706;2022-11-14T02:07:58;11.30;99.90
11035;DHT22;5571;48.110;-1.706;2022-11-14T02:10:23;11.30;99.90
11035;DHT22;5571;48.110;-1.706;2022-11-14T02:12:49;11.30;99.90
11035;DHT22;5571;48.110;-1.706;2022-11-14T02:15:15;11.30;99.90
11035;DHT22;5571;48.110;-1.706;2022-11-14T02:17:42;11.30;99.90
11035;DHT22;5571;48.110;-1.706;2022-11-14T02:22:37;11.30;99.90
11035;DHT22;5571;48.110;-1.706;2022-11-14T02:25:04;11.30;99.90
11035;DHT22;5571;48.110;-1.706;2022-11-14T02:27:32;11.30;99.90
11035;DHT22;5571;48.110;-1.706;2022-11-14T02:30:13;11.20;99.90
11035;DHT22;5571;48.110;-1.706;2022-11-14T02:32:39;11.20;99.90
11035;DHT22;5571;48.110;-1.706;2022-11-14T02:35:04;11.30;99.90
11035;DHT22;5571;48.110;-1.706;2022-11-14T02:37:30;11.30;99.90
11035;DHT22;5571;48.110;-1.706;2022-11-14T02:39:56;11.20;99.90
11035;DHT22;5571;48.110;-1.706;2022-11-14T02:42:21;11.20;99.90
11035;DHT22;5571;48.110;-1.706;2022-11-14T02:44:47;11.20;99.90
11035;DHT22;5571;48.110;-1.706;2022-11-14T02:47:12;11.20;99.90
11035;DHT22;5571;48.110;-1.706;2022-11-14T02:49:38;11.20;99.90
11035;DHT22;5571;48.110;-1.706;2022-11-14T02:52:04;11.20;99.90
11035;DHT22;5571;48.110;-1.706;2022-11-14T02:54:29;11.20;99.90
11035;DHT22;5571;48.110;-1.706;2022-11-14T02:56:55;11.20;99.90
11035;DHT22;5571;48.110;-1.706;2022-11-14T02:59:21;11.20;99.90
11035;DHT22;5571;48.110;-1.706;2022-11-14T03:01:46;11.20;99.90
11035;DHT22;5571;48.110;-1.706;2022-11-14T03:04:12;11.20;99.90
11035;DHT22;5571;48.110;-1.706;2022-11-14T03:06:37;11.20;99.90
11035;DHT22;5571;48.110;-1.706;2022-11-14T03:09:03;11.20;99.90
11035;DHT22;5571;48.110;-1.706;2022-11-14T03:11:29;11.30;99.90
11035;DHT22;5571;48.110;-1.706;2022-11-14T03:13:55;11.30;99.90
11035;DHT22;5571;48.110;-1.706;2022-11-14T03:16:21;11.20;99.90
11035;DHT22;5571;48.110;-1.706;2022-11-14T03:18:46;11.30;99.90
11035;DHT22;5571;48.110;-1.706;2022-11-14T03:21:17;11.30;99.90
11035;DHT22;5571;48.110;-1.706;2022-11-14T03:23:43;11.30;99.90
11035;DHT22;5571;48.110;-1.706;2022-11-14T03:26:10;11.30;99.90
11035;DHT22;5571;48.110;-1.706;2022-11-14T03:28:37;11.30;99.90
11035;DHT22;5571;48.110;-1.706;2022-11-14T03:31:03;11.30;99.90
11035;DHT22;5571;48.110;-1.706;2022-11-14T03:33:28;11.30;99.90
11035;DHT22;5571;48.110;-1.706;2022-11-14T03:35:54;11.30;99.90
11035;DHT22;5571;48.110;-1.706;2022-11-14T03:38:20;11.30;99.90
11035;DHT22;5571;48.110;-1.706;2022-11-14T03:40:50;11.30;99.90
11035;DHT22;5571;48.110;-1.706;2022-11-14T03:43:17;11.30;99.90
11035;DHT22;5571;48.110;-1.706;2022-11-14T03:45:43;11.20;99.90
11035;DHT22;5571;48.110;-1.706;2022-11-14T03:48:09;11.30;99.90
11035;DHT22;5571;48.110;-1.706;2022-11-14T03:50:34;11.20;99.90
11035;DHT22;5571;48.110;-1.706;2022-11-14T03:53:00;11.20;99.90
11035;DHT22;5571;48.110;-1.706;2022-11-14T03:55:26;11.10;99.90
11035;DHT22;5571;48.110;-1.706;2022-11-14T03:57:51;11.10;99.90
11035;DHT22;5571;48.110;-1.706;2022-11-14T04:00:17;11.10;99.90
11035;DHT22;5571;48.110;-1.706;2022-11-14T04:02:43;11.10;99.90
11035;DHT22;5571;48.110;-1.706;2022-11-14T04:05:09;11.10;99.90
11035;DHT22;5571;48.110;-1.706;2022-11-14T04:07:34;11.10;99.90
11035;DHT22;5571;48.110;-1.706;2022-11-14T04:10:00;11.10;99.90
11035;DHT22;5571;48.110;-1.706;2022-11-14T04:12:25;11.10;99.90
11035;DHT22;5571;48.110;-1.706;2022-11-14T04:14:51;11.10;99.90
11035;DHT22;5571;48.110;-1.706;2022-11-14T04:17:17;11.10;99.90
11035;DHT22;5571;48.110;-1.706;2022-11-14T04:19:43;11.10;99.90
11035;DHT22;5571;48.110;-1.706;2022-11-14T04:22:08;11.10;99.90
11035;DHT22;5571;48.110;-1.706;2022-11-14T04:24:34;11.00;99.90
11035;DHT22;5571;48.110;-1.706;2022-11-14T04:27:00;11.00;99.90
11035;DHT22;5571;48.110;-1.706;2022-11-14T04:29:25;11.10;99.90
11035;DHT22;5571;48.110;-1.706;2022-11-14T04:31:51;11.10;99.90
11035;DHT22;5571;48.110;-1.706;2022-11-14T04:34:17;11.10;99.90
11035;DHT22;5571;48.110;-1.706;2022-11-14T04:36:42;11.00;99.90
11035;DHT22;5571;48.110;-1.706;2022-11-14T04:39:08;11.00;99.90
11035;DHT22;5571;48.110;-1.706;2022-11-14T04:41:33;11.00;99.90
11035;DHT22;5571;48.110;-1.706;2022-11-14T04:43:59;10.90;99.90
11035;DHT22;5571;48.110;-1.706;2022-11-14T04:46:25;10.90;99.90
11035;DHT22;5571;48.110;-1.706;2022-11-14T04:48:50;10.90;99.90
11035;DHT22;5571;48.110;-1.706;2022-11-14T04:51:16;11.00;99.90
11035;DHT22;5571;48.110;-1.706;2022-11-14T04:53:42;10.90;99.90
11035;DHT22;5571;48.110;-1.706;2022-11-14T04:56:07;10.90;99.90
11035;DHT22;5571;48.110;-1.706;2022-11-14T04:58:33;10.90;99.90
11035;DHT22;5571;48.110;-1.706;2022-11-14T05:00:59;11.00;99.90
11035;DHT22;5571;48.110;-1.706;2022-11-14T05:03:24;11.00;99.90
11035;DHT22;5571;48.110;-1.706;2022-11-14T05:05:50;10.90;99.90
11035;DHT22;5571;48.110;-1.706;2022-11-14T05:08:16;10.90;99.90
11035;DHT22;5571;48.110;-1.706;2022-11-14T05:10:43;10.90;99.90
11035;DHT22;5571;48.110;-1.706;2022-11-14T05:13:09;10.90;99.90
11035;DHT22;5571;48.110;-1.706;2022-11-14T05:15:35;10.90;99.90
11035;DHT22;5571;48.110;-1.706;2022-11-14T05:18:01;11.00;99.90
11035;DHT22;5571;48.110;-1.706;2022-11-14T05:20:27;11.00;99.90
11035;DHT22;5571;48.110;-1.706;2022-11-14T05:22:55;11.00;99.90
11035;DHT22;5571;48.110;-1.706;2022-11-14T05:25:22;11.00;99.90
11035;DHT22;5571;48.110;-1.706;2022-11-14T05:27:48;11.00;99.90
11035;DHT22;5571;48.110;-1.706;2022-11-14T05:30:14;11.00;99.90
11035;DHT22;5571;48.110;-1.706;2022-11-14T05:32:40;11.00;99.90
11035;DHT22;5571;48.110;-1.706;2022-11-14T05:35:06;11.00;99.90
11035;DHT22;5571;48.110;-1.706;2022-11-14T05:37:33;11.10;99.90
11035;DHT22;5571;48.110;-1.706;2022-11-14T05:39:58;11.10;99.90
11035;DHT22;5571;48.110;-1.706;2022-11-14T05:42:25;11.10;99.90
11035;DHT22;5571;48.110;-1.706;2022-11-14T05:44:51;11.10;99.90
11035;DHT22;5571;48.110;-1.706;2022-11-14T05:47:16;11.10;99.90
11035;DHT22;5571;48.110;-1.706;2022-11-14T05:49:42;11.20;99.90
11035;DHT22;5571;48.110;-1.706;2022-11-14T05:52:08;11.20;99.90
11035;DHT22;5571;48.110;-1.706;2022-11-14T05:54:33;11.20;99.90
11035;DHT22;5571;48.110;-1.706;2022-11-14T05:56:59;11.10;99.90
11035;DHT22;5571;48.110;-1.706;2022-11-14T05:59:24;11.20;99.90
11035;DHT22;5571;48.110;-1.706;2022-11-14T06:01:50;11.20;99.90
11035;DHT22;5571;48.110;-1.706;2022-11-14T06:04:16;11.10;99.90
11035;DHT22;5571;48.110;-1.706;2022-11-14T06:06:41;11.10;99.90
11035;DHT22;5571;48.110;-1.706;2022-11-14T06:09:07;11.10;99.90
11035;DHT22;5571;48.110;-1.706;2022-11-14T06:11:33;11.20;99.90
11035;DHT22;5571;48.110;-1.706;2022-11-14T06:13:58;11.20;99.90
11035;DHT22;5571;48.110;-1.706;2022-11-14T06:16:24;11.20;99.90
11035;DHT22;5571;48.110;-1.706;2022-11-14T06:18:52;11.20;99.90
11035;DHT22;5571;48.110;-1.706;2022-11-14T06:21:20;11.20;99.90
11035;DHT22;5571;48.110;-1.706;2022-11-14T06:23:47;11.30;99.90
11035;DHT22;5571;48.110;-1.706;2022-11-14T06:26:22;11.20;99.90
11035;DHT22;5571;48.110;-1.706;2022-11-14T06:28:49;11.30;99.90
11035;DHT22;5571;48.110;-1.706;2022-11-14T06:31:16;11.30;99.90
11035;DHT22;5571;48.110;-1.706;2022-11-14T06:33:42;11.30;99.90
11035;DHT22;5571;48.110;-1.706;2022-11-14T06:36:08;11.30;99.90
11035;DHT22;5571;48.110;-1.706;2022-11-14T06:38:35;11.30;99.90
11035;DHT22;5571;48.110;-1.706;2022-11-14T06:43:32;11.20;99.90
11035;DHT22;5571;48.110;-1.706;2022-11-14T06:45:58;11.20;99.90
11035;DHT22;5571;48.110;-1.706;2022-11-14T06:48:23;11.30;99.90
11035;DHT22;5571;48.110;-1.706;2022-11-14T06:50:53;11.20;99.90
11035;DHT22;5571;48.110;-1.706;2022-11-14T06:53:18;11.30;99.90
11035;DHT22;5571;48.110;-1.706;2022-11-14T06:56:01;11.30;99.90
11035;DHT22;5571;48.110;-1.706;2022-11-14T06:58:33;11.40;99.90
11035;DHT22;5571;48.110;-1.706;2022-11-14T07:01:22;11.40;99.90
11035;DHT22;5571;48.110;-1.706;2022-11-14T07:03:48;11.30;99.90
11035;DHT22;5571;48.110;-1.706;2022-11-14T07:06:23;11.30;99.90
11035;DHT22;5571;48.110;-1.706;2022-11-14T07:08:50;11.20;99.90
11035;DHT22;5571;48.110;-1.706;2022-11-14T07:11:18;11.30;99.90
11035;DHT22;5571;48.110;-1.706;2022-11-14T07:13:49;11.30;99.90
11035;DHT22;5571;48.110;-1.706;2022-11-14T07:16:15;11.30;99.90
11035;DHT22;5571;48.110;-1.706;2022-11-14T07:18:40;11.40;99.90
11035;DHT22;5571;48.110;-1.706;2022-11-14T07:21:06;11.40;99.90
11035;DHT22;5571;48.110;-1.706;2022-11-14T07:23:33;11.40;99.90
11035;DHT22;5571;48.110;-1.706;2022-11-14T07:26:00;11.50;99.90
11035;DHT22;5571;48.110;-1.706;2022-11-14T07:28:26;11.50;99.90
11035;DHT22;5571;48.110;-1.706;2022-11-14T07:30:52;11.60;99.90
11035;DHT22;5571;48.110;-1.706;2022-11-14T07:33:17;11.70;99.90
11035;DHT22;5571;48.110;-1.706;2022-11-14T07:35:43;11.70;99.90
11035;DHT22;5571;48.110;-1.706;2022-11-14T07:38:09;11.60;99.90
11035;DHT22;5571;48.110;-1.706;2022-11-14T07:40:34;11.60;99.90
11035;DHT22;5571;48.110;-1.706;2022-11-14T07:43:01;11.60;99.90
11035;DHT22;5571;48.110;-1.706;2022-11-14T07:45:27;11.50;99.90
11035;DHT22;5571;48.110;-1.706;2022-11-14T07:47:59;11.50;99.90
11035;DHT22;5571;48.110;-1.706;2022-11-14T07:50:27;11.50;99.90
11035;DHT22;5571;48.110;-1.706;2022-11-14T07:52:55;11.50;99.90
11035;DHT22;5571;48.110;-1.706;2022-11-14T07:55:22;11.50;99.90
11035;DHT22;5571;48.110;-1.706;2022-11-14T07:57:51;11.60;99.90
11035;DHT22;5571;48.110;-1.706;2022-11-14T08:00:17;11.60;99.90
11035;DHT22;5571;48.110;-1.706;2022-11-14T08:02:45;11.60;99.90
11035;DHT22;5571;48.110;-1.706;2022-11-14T08:05:11;11.50;99.90
11035;DHT22;5571;48.110;-1.706;2022-11-14T08:07:36;11.50;99.90
11035;DHT22;5571;48.110;-1.706;2022-11-14T08:10:02;11.50;99.90
11035;DHT22;5571;48.110;-1.706;2022-11-14T08:12:28;11.50;99.90
11035;DHT22;5571;48.110;-1.706;2022-11-14T08:14:54;11.50;99.90
11035;DHT22;5571;48.110;-1.706;2022-11-14T08:17:20;11.50;99.90
11035;DHT22;5571;48.110;-1.706;2022-11-14T08:19:46;11.50;99.90
11035;DHT22;5571;48.110;-1.706;2022-11-14T08:22:12;11.50;99.90
11035;DHT22;5571;48.110;-1.706;2022-11-14T08:24:37;11.60;99.90
11035;DHT22;5571;48.110;-1.706;2022-11-14T08:27:03;11.50;99.90
11035;DHT22;5571;48.110;-1.706;2022-11-14T08:29:28;11.50;99.90
11035;DHT22;5571;48.110;-1.706;2022-11-14T08:31:54;11.50;99.90
11035;DHT22;5571;48.110;-1.706;2022-11-14T08:34:20;11.60;99.90
11035;DHT22;5571;48.110;-1.706;2022-11-14T08:36:46;11.60;99.90
11035;DHT22;5571;48.110;-1.706;2022-11-14T08:39:12;11.60;99.90
11035;DHT22;5571;48.110;-1.706;2022-11-14T08:41:38;11.60;99.90
11035;DHT22;5571;48.110;-1.706;2022-11-14T08:44:03;11.60;99.90
11035;DHT22;5571;48.110;-1.706;2022-11-14T08:46:29;11.70;99.90
11035;DHT22;5571;48.110;-1.706;2022-11-14T08:48:55;11.70;99.90
11035;DHT22;5571;48.110;-1.706;2022-11-14T08:51:20;11.70;99.90
11035;DHT22;5571;48.110;-1.706;2022-11-14T08:53:46;11.70;99.90
11035;DHT22;5571;48.110;-1.706;2022-11-14T08:56:11;11.70;99.90
11035;DHT22;5571;48.110;-1.706;2022-11-14T08:58:37;11.80;99.90
11035;DHT22;5571;48.110;-1.706;2022-11-14T09:01:05;11.70;99.90
11035;DHT22;5571;48.110;-1.706;2022-11-14T09:03:32;11.80;99.90
11035;DHT22;5571;48.110;-1.706;2022-11-14T09:05:58;11.80;99.90
11035;DHT22;5571;48.110;-1.706;2022-11-14T09:08:23;11.80;99.90
11035;DHT22;5571;48.110;-1.706;2022-11-14T09:10:49;11.90;99.90
11035;DHT22;5571;48.110;-1.706;2022-11-14T09:13:15;11.90;99.90
11035;DHT22;5571;48.110;-1.706;2022-11-14T09:15:41;11.90;99.90
11035;DHT22;5571;48.110;-1.706;2022-11-14T09:18:08;11.90;99.90
11035;DHT22;5571;48.110;-1.706;2022-11-14T09:20:34;11.90;99.90
11035;DHT22;5571;48.110;-1.706;2022-11-14T09:23:00;12.00;99.90
11035;DHT22;5571;48.110;-1.706;2022-11-14T09:25:27;12.00;99.90
11035;DHT22;5571;48.110;-1.706;2022-11-14T09:27:54;12.10;99.90
11035;DHT22;5571;48.110;-1.706;2022-11-14T09:30:19;12.10;99.90
11035;DHT22;5571;48.110;-1.706;2022-11-14T09:32:47;12.20;99.90
11035;DHT22;5571;48.110;-1.706;2022-11-14T09:35:12;12.20;99.90
11035;DHT22;5571;48.110;-1.706;2022-11-14T09:37:38;12.30;99.90
11035;DHT22;5571;48.110;-1.706;2022-11-14T09:40:05;12.30;99.90
11035;DHT22;5571;48.110;-1.706;2022-11-14T09:42:53;12.30;99.90
11035;DHT22;5571;48.110;-1.706;2022-11-14T09:45:24;12.20;99.90
11035;DHT22;5571;48.110;-1.706;2022-11-14T09:47:53;12.30;99.90
11035;DHT22;5571;48.110;-1.706;2022-11-14T09:50:26;12.30;99.90
11035;DHT22;5571;48.110;-1.706;2022-11-14T09:52:57;12.30;99.90
11035;DHT22;5571;48.110;-1.706;2022-11-14T09:55:33;12.30;99.90
11035;DHT22;5571;48.110;-1.706;2022-11-14T09:58:00;12.30;99.90
11035;DHT22;5571;48.110;-1.706;2022-11-14T10:00:34;12.30;99.90
11035;DHT22;5571;48.110;-1.706;2022-11-14T10:03:15;12.40;99.90
11035;DHT22;5571;48.110;-1.706;2022-11-14T10:06:12;12.30;99.90
11035;DHT22;5571;48.110;-1.706;2022-11-14T10:12:14;12.40;99.90
11035;DHT22;5571;48.110;-1.706;2022-11-14T10:23:32;12.70;99.90
11035;DHT22;5571;48.110;-1.706;2022-11-14T10:26:26;12.70;99.90
11035;DHT22;5571;48.110;-1.706;2022-11-14T10:37:30;12.90;99.90
11035;DHT22;5571;48.110;-1.706;2022-11-14T10:40:23;13.00;99.90
11035;DHT22;5571;48.110;-1.706;2022-11-14T10:42:56;13.00;99.90
11035;DHT22;5571;48.110;-1.706;2022-11-14T10:45:27;13.10;99.90
11035;DHT22;5571;48.110;-1.706;2022-11-14T10:48:03;13.20;99.90
11035;DHT22;5571;48.110;-1.706;2022-11-14T10:50:49;13.30;99.90
11035;DHT22;5571;48.110;-1.706;2022-11-14T10:56:20;13.60;99.90
11035;DHT22;5571;48.110;-1.706;2022-11-14T10:58:46;13.60;99.90
11035;DHT22;5571;48.110;-1.706;2022-11-14T11:04:52;13.70;99.90
11035;DHT22;5571;48.110;-1.706;2022-11-14T11:07:22;13.70;99.90
11035;DHT22;5571;48.110;-1.706;2022-11-14T11:10:10;13.80;99.90
11035;DHT22;5571;48.110;-1.706;2022-11-14T11:13:02;13.80;99.90
11035;DHT22;5571;48.110;-1.706;2022-11-14T11:15:29;13.80;99.90
11035;DHT22;5571;48.110;-1.706;2022-11-14T11:21:07;13.70;99.90
11035;DHT22;5571;48.110;-1.706;2022-11-14T11:23:33;13.70;99.90
11035;DHT22;5571;48.110;-1.706;2022-11-14T11:26:18;13.70;99.90
11035;DHT22;5571;48.110;-1.706;2022-11-14T11:29:18;13.80;99.90
11035;DHT22;5571;48.110;-1.706;2022-11-14T11:34:24;14.00;99.90
11035;DHT22;5571;48.110;-1.706;2022-11-14T11:37:11;14.10;99.90
11035;DHT22;5571;48.110;-1.706;2022-11-14T11:39:46;14.00;99.90
11035;DHT22;5571;48.110;-1.706;2022-11-14T11:42:21;14.00;99.90
11035;DHT22;5571;48.110;-1.706;2022-11-14T11:44:52;14.10;99.90
11035;DHT22;5571;48.110;-1.706;2022-11-14T11:47:19;14.10;99.90
11035;DHT22;5571;48.110;-1.706;2022-11-14T11:49:47;14.20;99.90
11035;DHT22;5571;48.110;-1.706;2022-11-14T11:52:39;14.20;99.90
11035;DHT22;5571;48.110;-1.706;2022-11-14T11:57:42;14.40;99.90
11035;DHT22;5571;48.110;-1.706;2022-11-14T12:00:19;14.60;99.90
11035;DHT22;5571;48.110;-1.706;2022-11-14T12:02:47;14.60;99.90
11035;DHT22;5571;48.110;-1.706;2022-11-14T12:10:40;14.30;99.90
11035;DHT22;5571;48.110;-1.706;2022-11-14T12:29:45;16.10;99.90
11035;DHT22;5571;48.110;-1.706;2022-11-14T12:32:20;16.60;99.90
11035;DHT22;5571;48.110;-1.706;2022-11-14T12:34:48;16.50;99.90
11035;DHT22;5571;48.110;-1.706;2022-11-14T12:37:26;16.20;99.90
11035;DHT22;5571;48.110;-1.706;2022-11-14T12:39:59;16.30;99.90
11035;DHT22;5571;48.110;-1.706;2022-11-14T12:42:26;16.20;99.90
11035;DHT22;5571;48.110;-1.706;2022-11-14T12:44:51;16.20;99.90
11035;DHT22;5571;48.110;-1.706;2022-11-14T12:47:25;16.30;99.90
11035;DHT22;5571;48.110;-1.706;2022-11-14T12:58:03;16.20;99.90
11035;DHT22;5571;48.110;-1.706;2022-11-14T13:00:32;15.90;99.90
11035;DHT22;5571;48.110;-1.706;2022-11-14T13:06:21;15.20;99.90
11035;DHT22;5571;48.110;-1.706;2022-11-14T13:11:45;14.80;99.90
11035;DHT22;5571;48.110;-1.706;2022-11-14T13:14:31;14.70;99.90
11035;DHT22;5571;48.110;-1.706;2022-11-14T13:20:02;14.70;99.90
11035;DHT22;5571;48.110;-1.706;2022-11-14T13:22:46;14.70;99.90
11035;DHT22;5571;48.110;-1.706;2022-11-14T13:25:18;14.60;99.90
11035;DHT22;5571;48.110;-1.706;2022-11-14T13:27:45;14.50;99.90
11035;DHT22;5571;48.110;-1.706;2022-11-14T13:30:10;14.20;99.90
11035;DHT22;5571;48.110;-1.706;2022-11-14T13:37:46;13.80;99.90
11035;DHT22;5571;48.110;-1.706;2022-11-14T13:43:18;14.80;99.90
11035;DHT22;5571;48.110;-1.706;2022-11-14T13:51:46;15.40;99.90
11035;DHT22;5571;48.110;-1.706;2022-11-14T13:54:13;15.40;99.90
11035;DHT22;5571;48.110;-1.706;2022-11-14T13:57:00;15.40;99.90
11035;DHT22;5571;48.110;-1.706;2022-11-14T14:08:01;15.20;99.90
11035;DHT22;5571;48.110;-1.706;2022-11-14T14:11:16;14.80;99.90
11035;DHT22;5571;48.110;-1.706;2022-11-14T14:16:35;14.40;99.90
11035;DHT22;5571;48.110;-1.706;2022-11-14T14:27:48;14.30;99.90
11035;DHT22;5571;48.110;-1.706;2022-11-14T14:30:18;14.50;99.90
11035;DHT22;5571;48.110;-1.706;2022-11-14T14:33:02;14.70;99.90
11035;DHT22;5571;48.110;-1.706;2022-11-14T14:35:30;14.80;99.90
11035;DHT22;5571;48.110;-1.706;2022-11-14T14:37:56;14.90;99.90
11035;DHT22;5571;48.110;-1.706;2022-11-14T14:40:32;14.90;99.90
11035;DHT22;5571;48.110;-1.706;2022-11-14T14:43:03;15.40;99.90
11035;DHT22;5571;48.110;-1.706;2022-11-14T14:45:35;16.00;99.90
11035;DHT22;5571;48.110;-1.706;2022-11-14T14:48:14;16.20;99.90
11035;DHT22;5571;48.110;-1.706;2022-11-14T14:50:46;16.40;99.90
11035;DHT22;5571;48.110;-1.706;2022-11-14T14:53:20;16.60;99.90
11035;DHT22;5571;48.110;-1.706;2022-11-14T14:56:17;16.80;99.90
11035;DHT22;5571;48.110;-1.706;2022-11-14T14:58:42;16.90;99.90
11035;DHT22;5571;48.110;-1.706;2022-11-14T15:01:13;16.90;99.90
11035;DHT22;5571;48.110;-1.706;2022-11-14T15:03:41;17.30;99.90
11035;DHT22;5571;48.110;-1.706;2022-11-14T15:06:34;17.30;99.90
11035;DHT22;5571;48.110;-1.706;2022-11-14T15:09:08;17.60;99.90
11035;DHT22;5571;48.110;-1.706;2022-11-14T15:11:38;17.60;99.90
11035;DHT22;5571;48.110;-1.706;2022-11-14T15:14:05;17.20;99.90
11035;DHT22;5571;48.110;-1.706;2022-11-14T15:16:35;17.30;99.90
11035;DHT22;5571;48.110;-1.706;2022-11-14T15:19:01;17.10;99.90
11035;DHT22;5571;48.110;-1.706;2022-11-14T15:21:28;17.10;99.90
11035;DHT22;5571;48.110;-1.706;2022-11-14T15:24:21;17.10;99.90
11035;DHT22;5571;48.110;-1.706;2022-11-14T15:26:48;17.10;99.90
11035;DHT22;5571;48.110;-1.706;2022-11-14T15:31:48;16.70;99.90
11035;DHT22;5571;48.110;-1.706;2022-11-14T15:34:35;16.40;99.90
11035;DHT22;5571;48.110;-1.706;2022-11-14T15:39:41;16.00;99.90
11035;DHT22;5571;48.110;-1.706;2022-11-14T15:42:27;15.70;99.90
11035;DHT22;5571;48.110;-1.706;2022-11-14T15:44:53;15.50;99.90
11035;DHT22;5571;48.110;-1.706;2022-11-14T15:47:27;15.20;99.90
11035;DHT22;5571;48.110;-1.706;2022-11-14T15:52:33;14.80;99.90
11035;DHT22;5571;48.110;-1.706;2022-11-14T15:55:01;14.80;99.90
11035;DHT22;5571;48.110;-1.706;2022-11-14T15:57:27;14.80;99.90
11035;DHT22;5571;48.110;-1.706;2022-11-14T15:59:55;14.60;99.90
11035;DHT22;5571;48.110;-1.706;2022-11-14T16:02:25;14.50;99.90
11035;DHT22;5571;48.110;-1.706;2022-11-14T16:04:54;14.40;99.90
11035;DHT22;5571;48.110;-1.706;2022-11-14T16:07:20;14.30;99.90
11035;DHT22;5571;48.110;-1.706;2022-11-14T16:09:47;14.20;99.90
11035;DHT22;5571;48.110;-1.706;2022-11-14T16:12:13;14.00;99.90
11035;DHT22;5571;48.110;-1.706;2022-11-14T16:14:39;14.00;99.90
11035;DHT22;5571;48.110;-1.706;2022-11-14T16:17:05;13.90;99.90
11035;DHT22;5571;48.110;-1.706;2022-11-14T16:19:31;13.80;99.90
11035;DHT22;5571;48.110;-1.706;2022-11-14T16:21:59;13.70;99.90
11035;DHT22;5571;48.110;-1.706;2022-11-14T16:24:27;13.60;99.90
11035;DHT22;5571;48.110;-1.706;2022-11-14T16:26:54;13.60;99.90
11035;DHT22;5571;48.110;-1.706;2022-11-14T16:29:20;13.50;99.90
11035;DHT22;5571;48.110;-1.706;2022-11-14T16:31:45;13.30;99.90
11035;DHT22;5571;48.110;-1.706;2022-11-14T16:34:18;13.20;99.90
11035;DHT22;5571;48.110;-1.706;2022-11-14T16:36:44;13.20;99.90
11035;DHT22;5571;48.110;-1.706;2022-11-14T16:39:10;13.10;99.90
11035;DHT22;5571;48.110;-1.706;2022-11-14T16:41:38;13.00;99.90
11035;DHT22;5571;48.110;-1.706;2022-11-14T16:44:04;12.90;99.90
11035;DHT22;5571;48.110;-1.706;2022-11-14T16:46:29;12.90;99.90
11035;DHT22;5571;48.110;-1.706;2022-11-14T16:48:55;12.80;99.90
11035;DHT22;5571;48.110;-1.706;2022-11-14T16:51:21;12.80;99.90
11035;DHT22;5571;48.110;-1.706;2022-11-14T16:53:46;12.80;99.90
11035;DHT22;5571;48.110;-1.706;2022-11-14T16:56:12;12.70;99.90
11035;DHT22;5571;48.110;-1.706;2022-11-14T16:58:38;12.60;99.90
11035;DHT22;5571;48.110;-1.706;2022-11-14T17:01:06;12.60;99.90
11035;DHT22;5571;48.110;-1.706;2022-11-14T17:03:33;12.50;99.90
11035;DHT22;5571;48.110;-1.706;2022-11-14T17:05:59;12.50;99.90
11035;DHT22;5571;48.110;-1.706;2022-11-14T17:08:24;12.40;99.90
11035;DHT22;5571;48.110;-1.706;2022-11-14T17:10:50;12.40;99.90
11035;DHT22;5571;48.110;-1.706;2022-11-14T17:13:15;12.40;99.90
11035;DHT22;5571;48.110;-1.706;2022-11-14T17:15:44;12.30;99.90
11035;DHT22;5571;48.110;-1.706;2022-11-14T17:18:09;12.30;99.90
11035;DHT22;5571;48.110;-1.706;2022-11-14T17:20:38;12.30;99.90
11035;DHT22;5571;48.110;-1.706;2022-11-14T17:23:04;12.20;99.90
11035;DHT22;5571;48.110;-1.706;2022-11-14T17:25:30;12.20;99.90
11035;DHT22;5571;48.110;-1.706;2022-11-14T17:27:55;12.10;99.90
11035;DHT22;5571;48.110;-1.706;2022-11-14T17:30:21;12.00;99.90
11035;DHT22;5571;48.110;-1.706;2022-11-14T17:32:46;12.00;99.90
11035;DHT22;5571;48.110;-1.706;2022-11-14T17:35:12;11.90;99.90
11035;DHT22;5571;48.110;-1.706;2022-11-14T17:37:38;11.90;99.90
11035;DHT22;5571;48.110;-1.706;2022-11-14T17:40:04;11.90;99.90
11035;DHT22;5571;48.110;-1.706;2022-11-14T17:42:30;11.90;99.90